createdAt,value
2023-02-26T00:05:42.868Z,1.35
2023-02-26T00:17:43.315Z,0.80
2023-02-26T00:29:43.766Z,1.73
2023-02-26T00:41:44.302Z,0.98
2023-02-26T00:53:44.637Z,0.76
2023-02-26T01:05:45.133Z,0.76
2023-02-26T01:17:45.530Z,0.53
2023-02-26T01:29:46.064Z,0.45
2023-02-26T01:41:46.451Z,0.80
2023-02-26T01:53:46.952Z,0.50
2023-02-26T02:05:47.395Z,0.80
2023-02-26T02:17:47.830Z,0.80
2023-02-26T02:29:48.297Z,0.89
2023-02-26T02:41:48.738Z,0.61
2023-02-26T02:53:49.165Z,1.13
2023-02-26T03:05:49.683Z,0.91
2023-02-26T03:17:50.099Z,1.06
2023-02-26T03:29:50.561Z,0.91
2023-02-26T03:41:50.974Z,0.72
2023-02-26T03:53:51.476Z,0.66
2023-02-26T04:05:51.884Z,0.44
2023-02-26T04:17:52.370Z,0.51
2023-02-26T04:29:52.811Z,0.51
2023-02-26T04:41:53.217Z,0.33
2023-02-26T04:53:53.685Z,0.11
2023-02-26T05:05:54.165Z,0.17
2023-02-26T05:17:54.571Z,0.11
2023-02-26T05:29:55.059Z,0.19
2023-02-26T05:41:55.889Z,0.19
2023-02-26T05:53:56.332Z,0.19
2023-02-26T06:05:56.771Z,0.23
2023-02-26T06:17:57.243Z,0.41
2023-02-26T06:29:57.647Z,0.35
2023-02-26T06:41:58.123Z,0.62
2023-02-26T06:53:58.585Z,0.71
2023-02-26T07:06:06.458Z,0.86
2023-02-26T07:17:59.448Z,0.97
2023-02-26T07:29:59.910Z,1.15
2023-02-26T07:42:00.389Z,0.97
2023-02-26T07:54:00.847Z,0.96
2023-02-26T08:06:01.295Z,0.92
2023-02-26T08:18:01.749Z,1.11
2023-02-26T08:30:02.199Z,1.31
2023-02-26T08:42:02.638Z,1.66
2023-02-26T08:54:03.076Z,1.25
2023-02-26T09:06:03.532Z,1.35
2023-02-26T09:18:03.967Z,1.56
2023-02-26T09:30:04.477Z,1.42
2023-02-26T09:42:04.873Z,1.65
2023-02-26T09:54:05.311Z,1.71
2023-02-26T10:06:05.810Z,1.91
2023-02-26T10:18:06.283Z,2.19
2023-02-26T10:30:06.709Z,1.89
2023-02-26T10:42:07.147Z,2.16
2023-02-26T10:54:07.569Z,2.29
2023-02-26T11:06:08.080Z,2.06
2023-02-26T11:18:08.526Z,1.83
2023-02-26T11:30:08.979Z,2.18
2023-02-26T11:42:09.429Z,2.13
2023-02-26T11:54:09.914Z,2.65
2023-02-26T12:06:10.312Z,2.46
2023-02-26T12:18:10.726Z,3.13
2023-02-26T12:30:11.320Z,2.93
2023-02-26T12:42:11.700Z,2.91
2023-02-26T12:54:12.112Z,2.98
2023-02-26T13:06:12.604Z,3.00
2023-02-26T13:18:12.999Z,3.07
2023-02-26T13:30:13.456Z,2.72
2023-02-26T13:42:13.942Z,2.42
2023-02-26T13:54:14.425Z,2.80
2023-02-26T14:06:14.796Z,2.43
2023-02-26T14:18:15.295Z,2.23
2023-02-26T14:30:15.694Z,1.73
2023-02-26T14:42:16.210Z,1.61
2023-02-26T14:54:16.649Z,1.51
2023-02-26T15:06:17.117Z,1.47
2023-02-26T15:18:17.528Z,1.44
2023-02-26T15:30:17.961Z,1.64
2023-02-26T15:42:18.471Z,1.50
2023-02-26T15:54:18.935Z,1.46
2023-02-26T16:06:19.336Z,1.24
2023-02-26T16:18:19.821Z,1.23
2023-02-26T16:30:20.225Z,1.10
2023-02-26T16:42:20.690Z,0.99
2023-02-26T16:54:21.120Z,0.95
2023-02-26T17:06:21.590Z,0.83
2023-02-26T17:18:22.040Z,0.74
2023-02-26T17:30:22.502Z,0.65
2023-02-26T17:42:22.914Z,0.57
2023-02-26T17:54:23.350Z,0.53
2023-02-26T18:06:23.834Z,0.57
2023-02-26T18:18:24.346Z,0.57
2023-02-26T18:30:24.752Z,0.55
2023-02-26T18:42:25.273Z,0.58
2023-02-26T18:54:25.663Z,0.43
2023-02-26T19:06:26.091Z,0.34
2023-02-26T19:18:26.645Z,0.27
2023-02-26T19:30:27.600Z,0.27
2023-02-26T19:42:27.471Z,0.22
2023-02-26T19:54:27.948Z,0.10
2023-02-26T20:06:28.345Z,0.04
2023-02-26T20:18:28.820Z,0.02
2023-02-26T20:30:29.269Z,0.02
2023-02-26T20:42:29.708Z,0.01
2023-02-26T20:54:30.188Z,0.03
2023-02-26T21:06:30.641Z,-0.09
2023-02-26T21:18:31.076Z,-0.01
2023-02-26T21:30:31.569Z,0.00
2023-02-26T21:42:31.973Z,-0.03
2023-02-26T21:54:32.465Z,-0.10
2023-02-26T22:06:32.913Z,-0.35
2023-02-26T22:18:33.377Z,-0.55
2023-02-26T22:30:33.842Z,-0.54
2023-02-26T22:42:34.225Z,-0.79
2023-02-26T22:54:34.713Z,-0.83
2023-02-26T23:06:35.204Z,-0.96
2023-02-26T23:18:35.582Z,-0.87
2023-02-26T23:30:36.071Z,-0.93
2023-02-26T23:42:36.498Z,-1.08
2023-02-26T23:54:36.985Z,-0.87
